sensor_id;sensor_type;location;lat;lon;timestamp;temperature;humidity
19880;DHT22;10102;50.828;4.416;2023-04-05T00:00:30;5.80;99.90
19880;DHT22;10102;50.828;4.416;2023-04-05T00:02:57;5.80;99.90
19880;DHT22;10102;50.828;4.416;2023-04-05T00:05:25;5.90;99.90
19880;DHT22;10102;50.828;4.416;2023-04-05T00:07:58;6.10;99.90
19880;DHT22;10102;50.828;4.416;2023-04-05T00:12:51;6.20;99.90
19880;DHT22;10102;50.828;4.416;2023-04-05T00:15:17;6.20;99.90
19880;DHT22;10102;50.828;4.416;2023-04-05T00:17:44;6.10;99.90
19880;DHT22;10102;50.828;4.416;2023-04-05T00:20:10;5.80;99.90
19880;DHT22;10102;50.828;4.416;2023-04-05T00:22:36;5.90;99.90
19880;DHT22;10102;50.828;4.416;2023-04-05T00:25:03;5.90;99.90
19880;DHT22;10102;50.828;4.416;2023-04-05T00:27:29;5.90;99.90
19880;DHT22;10102;50.828;4.416;2023-04-05T00:32:21;6.10;99.90
19880;DHT22;10102;50.828;4.416;2023-04-05T00:34:47;6.20;99.90
19880;DHT22;10102;50.828;4.416;2023-04-05T00:39:38;6.40;99.90
19880;DHT22;10102;50.828;4.416;2023-04-05T00:42:04;6.30;99.90
19880;DHT22;10102;50.828;4.416;2023-04-05T00:44:31;6.00;99.90
19880;DHT22;10102;50.828;4.416;2023-04-05T00:47:01;6.10;99.90
19880;DHT22;10102;50.828;4.416;2023-04-05T00:49:31;5.80;99.90
19880;DHT22;10102;50.828;4.416;2023-04-05T00:51:58;5.40;99.90
19880;DHT22;10102;50.828;4.416;2023-04-05T00:54:24;5.60;99.90
19880;DHT22;10102;50.828;4.416;2023-04-05T00:56:51;5.50;99.90
19880;DHT22;10102;50.828;4.416;2023-04-05T00:59:20;5.40;99.90
19880;DHT22;10102;50.828;4.416;2023-04-05T01:01:49;5.30;99.90
19880;DHT22;10102;50.828;4.416;2023-04-05T01:04:24;4.80;99.90
19880;DHT22;10102;50.828;4.416;2023-04-05T01:07:42;5.20;99.90
19880;DHT22;10102;50.828;4.416;2023-04-05T01:10:13;5.00;99.90
19880;DHT22;10102;50.828;4.416;2023-04-05T01:12:40;5.00;99.90
19880;DHT22;10102;50.828;4.416;2023-04-05T01:15:07;4.90;99.90
19880;DHT22;10102;50.828;4.416;2023-04-05T01:17:33;4.80;99.90
19880;DHT22;10102;50.828;4.416;2023-04-05T01:20:06;5.00;99.90
19880;DHT22;10102;50.828;4.416;2023-04-05T01:36:56;5.20;99.90
19880;DHT22;10102;50.828;4.416;2023-04-05T01:39:23;5.40;99.90
19880;DHT22;10102;50.828;4.416;2023-04-05T01:44:15;4.70;99.90
19880;DHT22;10102;50.828;4.416;2023-04-05T01:49:07;4.80;99.90
19880;DHT22;10102;50.828;4.416;2023-04-05T01:51:33;4.60;99.90
19880;DHT22;10102;50.828;4.416;2023-04-05T01:53:59;4.50;99.90
19880;DHT22;10102;50.828;4.416;2023-04-05T01:56:24;4.40;99.90
19880;DHT22;10102;50.828;4.416;2023-04-05T02:03:42;4.60;99.90
19880;DHT22;10102;50.828;4.416;2023-04-05T02:06:08;4.40;99.90
19880;DHT22;10102;50.828;4.416;2023-04-05T02:08:33;4.50;99.90
19880;DHT22;10102;50.828;4.416;2023-04-05T02:13:25;4.30;99.90
19880;DHT22;10102;50.828;4.416;2023-04-05T02:15:51;4.10;99.90
19880;DHT22;10102;50.828;4.416;2023-04-05T02:18:17;4.30;99.90
19880;DHT22;10102;50.828;4.416;2023-04-05T02:21:00;4.30;99.90
19880;DHT22;10102;50.828;4.416;2023-04-05T02:23:26;4.10;99.90
19880;DHT22;10102;50.828;4.416;2023-04-05T02:25:55;4.10;99.90
19880;DHT22;10102;50.828;4.416;2023-04-05T02:28:20;4.30;99.90
19880;DHT22;10102;50.828;4.416;2023-04-05T02:33:12;4.10;99.90
19880;DHT22;10102;50.828;4.416;2023-04-05T02:35:38;4.20;99.90
19880;DHT22;10102;50.828;4.416;2023-04-05T02:38:04;4.40;99.90
19880;DHT22;10102;50.828;4.416;2023-04-05T02:40:30;4.70;99.90
19880;DHT22;10102;50.828;4.416;2023-04-05T02:42:56;4.60;99.90
19880;DHT22;10102;50.828;4.416;2023-04-05T02:47:48;4.40;99.90
19880;DHT22;10102;50.828;4.416;2023-04-05T02:50:14;4.50;99.90
19880;DHT22;10102;50.828;4.416;2023-04-05T02:52:39;4.50;99.90
19880;DHT22;10102;50.828;4.416;2023-04-05T02:55:06;4.40;99.90
19880;DHT22;10102;50.828;4.416;2023-04-05T02:57:32;4.30;99.90
19880;DHT22;10102;50.828;4.416;2023-04-05T03:02:23;4.20;99.90
19880;DHT22;10102;50.828;4.416;2023-04-05T03:04:51;4.70;99.90
19880;DHT22;10102;50.828;4.416;2023-04-05T03:09:44;5.10;99.90
19880;DHT22;10102;50.828;4.416;2023-04-05T03:14:37;3.90;99.90
19880;DHT22;10102;50.828;4.416;2023-04-05T03:17:03;4.00;99.90
19880;DHT22;10102;50.828;4.416;2023-04-05T03:19:31;4.20;99.90
19880;DHT22;10102;50.828;4.416;2023-04-05T03:21:56;3.90;99.90
19880;DHT22;10102;50.828;4.416;2023-04-05T03:24:23;4.00;99.90
19880;DHT22;10102;50.828;4.416;2023-04-05T03:26:48;4.00;99.90
19880;DHT22;10102;50.828;4.416;2023-04-05T03:29:15;3.90;99.90
19880;DHT22;10102;50.828;4.416;2023-04-05T03:31:41;3.80;99.90
19880;DHT22;10102;50.828;4.416;2023-04-05T03:34:07;4.00;99.90
19880;DHT22;10102;50.828;4.416;2023-04-05T03:36:32;3.80;99.90
19880;DHT22;10102;50.828;4.416;2023-04-05T03:39:16;3.70;99.90
19880;DHT22;10102;50.828;4.416;2023-04-05T03:44:08;3.70;99.90
19880;DHT22;10102;50.828;4.416;2023-04-05T03:46:33;3.30;99.90
19880;DHT22;10102;50.828;4.416;2023-04-05T03:49:00;3.00;99.90
19880;DHT22;10102;50.828;4.416;2023-04-05T03:51:26;2.80;99.90
19880;DHT22;10102;50.828;4.416;2023-04-05T03:56:18;2.60;99.90
19880;DHT22;10102;50.828;4.416;2023-04-05T03:58:45;3.20;99.90
19880;DHT22;10102;50.828;4.416;2023-04-05T04:01:11;3.30;99.90
19880;DHT22;10102;50.828;4.416;2023-04-05T04:03:37;3.40;99.90
19880;DHT22;10102;50.828;4.416;2023-04-05T04:06:04;3.10;99.90
19880;DHT22;10102;50.828;4.416;2023-04-05T04:08:29;3.10;99.90
19880;DHT22;10102;50.828;4.416;2023-04-05T04:10:55;2.90;99.90
19880;DHT22;10102;50.828;4.416;2023-04-05T04:13:21;2.90;99.90
19880;DHT22;10102;50.828;4.416;2023-04-05T04:18:18;3.30;99.90
19880;DHT22;10102;50.828;4.416;2023-04-05T04:20:44;3.60;99.90
19880;DHT22;10102;50.828;4.416;2023-04-05T04:23:10;3.20;99.90
19880;DHT22;10102;50.828;4.416;2023-04-05T04:25:38;2.90;99.90
19880;DHT22;10102;50.828;4.416;2023-04-05T04:28:24;2.70;99.90
19880;DHT22;10102;50.828;4.416;2023-04-05T04:33:16;2.90;99.90
19880;DHT22;10102;50.828;4.416;2023-04-05T04:43:18;3.60;99.90
19880;DHT22;10102;50.828;4.416;2023-04-05T04:45:52;3.60;99.90
19880;DHT22;10102;50.828;4.416;2023-04-05T04:48:20;3.70;99.90
19880;DHT22;10102;50.828;4.416;2023-04-05T04:50:46;3.40;99.90
19880;DHT22;10102;50.828;4.416;2023-04-05T04:53:14;3.20;99.90
19880;DHT22;10102;50.828;4.416;2023-04-05T05:03:01;2.90;99.90
19880;DHT22;10102;50.828;4.416;2023-04-05T05:05:27;2.70;99.90
19880;DHT22;10102;50.828;4.416;2023-04-05T05:07:53;2.60;99.90
19880;DHT22;10102;50.828;4.416;2023-04-05T05:10:19;2.70;99.90
19880;DHT22;10102;50.828;4.416;2023-04-05T05:12:45;3.10;99.90
19880;DHT22;10102;50.828;4.416;2023-04-05T05:15:13;3.20;99.90
19880;DHT22;10102;50.828;4.416;2023-04-05T05:17:39;3.30;99.90
19880;DHT22;10102;50.828;4.416;2023-04-05T05:20:06;3.80;99.90
19880;DHT22;10102;50.828;4.416;2023-04-05T05:22:38;3.80;99.90
19880;DHT22;10102;50.828;4.416;2023-04-05T05:25:05;3.70;99.90
19880;DHT22;10102;50.828;4.416;2023-04-05T05:27:31;3.60;99.90
19880;DHT22;10102;50.828;4.416;2023-04-05T05:29:58;3.20;99.90
19880;DHT22;10102;50.828;4.416;2023-04-05T05:32:24;3.60;99.90
19880;DHT22;10102;50.828;4.416;2023-04-05T05:34:50;3.40;99.90
19880;DHT22;10102;50.828;4.416;2023-04-05T05:37:16;3.50;99.90
19880;DHT22;10102;50.828;4.416;2023-04-05T05:39:42;3.20;99.90
19880;DHT22;10102;50.828;4.416;2023-04-05T05:42:10;3.20;99.90
19880;DHT22;10102;50.828;4.416;2023-04-05T05:47:03;3.40;99.90
19880;DHT22;10102;50.828;4.416;2023-04-05T05:49:29;3.20;99.90
19880;DHT22;10102;50.828;4.416;2023-04-05T05:51:55;3.40;99.90
19880;DHT22;10102;50.828;4.416;2023-04-05T05:54:22;3.40;99.90
19880;DHT22;10102;50.828;4.416;2023-04-05T05:56:47;3.70;99.90
19880;DHT22;10102;50.828;4.416;2023-04-05T05:59:13;3.70;99.90
19880;DHT22;10102;50.828;4.416;2023-04-05T06:01:39;3.40;99.90
19880;DHT22;10102;50.828;4.416;2023-04-05T06:04:08;3.40;99.90
19880;DHT22;10102;50.828;4.416;2023-04-05T06:06:34;2.90;99.90
19880;DHT22;10102;50.828;4.416;2023-04-05T06:09:00;3.10;99.90
19880;DHT22;10102;50.828;4.416;2023-04-05T06:11:35;3.10;99.90
19880;DHT22;10102;50.828;4.416;2023-04-05T06:14:00;3.20;99.90
19880;DHT22;10102;50.828;4.416;2023-04-05T06:18:53;3.50;99.90
19880;DHT22;10102;50.828;4.416;2023-04-05T06:21:20;3.60;99.90
19880;DHT22;10102;50.828;4.416;2023-04-05T06:23:46;3.80;99.90
19880;DHT22;10102;50.828;4.416;2023-04-05T06:26:19;4.00;99.90
19880;DHT22;10102;50.828;4.416;2023-04-05T06:28:48;4.50;99.90
19880;DHT22;10102;50.828;4.416;2023-04-05T06:31:15;4.50;99.90
19880;DHT22;10102;50.828;4.416;2023-04-05T06:33:42;4.40;99.90
19880;DHT22;10102;50.828;4.416;2023-04-05T06:36:09;4.50;99.90
19880;DHT22;10102;50.828;4.416;2023-04-05T06:38:34;4.60;99.90
19880;DHT22;10102;50.828;4.416;2023-04-05T06:41:01;4.80;99.90
19880;DHT22;10102;50.828;4.416;2023-04-05T06:43:27;5.10;99.90
19880;DHT22;10102;50.828;4.416;2023-04-05T06:45:56;5.30;99.90
19880;DHT22;10102;50.828;4.416;2023-04-05T06:48:22;5.60;99.90
19880;DHT22;10102;50.828;4.416;2023-04-05T06:51:09;5.80;99.90
19880;DHT22;10102;50.828;4.416;2023-04-05T06:53:34;5.80;99.90
19880;DHT22;10102;50.828;4.416;2023-04-05T06:56:01;6.00;99.90
19880;DHT22;10102;50.828;4.416;2023-04-05T06:58:26;6.20;99.90
19880;DHT22;10102;50.828;4.416;2023-04-05T07:00:52;6.40;99.90
19880;DHT22;10102;50.828;4.416;2023-04-05T07:03:19;6.50;99.90
19880;DHT22;10102;50.828;4.416;2023-04-05T07:05:53;6.70;99.90
19880;DHT22;10102;50.828;4.416;2023-04-05T07:08:22;6.90;99.90
19880;DHT22;10102;50.828;4.416;2023-04-05T07:10:51;7.10;99.90
19880;DHT22;10102;50.828;4.416;2023-04-05T07:13:18;7.60;99.90
19880;DHT22;10102;50.828;4.416;2023-04-05T07:15:44;7.30;99.90
19880;DHT22;10102;50.828;4.416;2023-04-05T07:18:10;7.50;99.90
19880;DHT22;10102;50.828;4.416;2023-04-05T07:20:36;7.70;99.90
19880;DHT22;10102;50.828;4.416;2023-04-05T07:23:02;7.80;99.90
19880;DHT22;10102;50.828;4.416;2023-04-05T07:25:28;7.90;99.90
19880;DHT22;10102;50.828;4.416;2023-04-05T07:27:54;8.00;99.90
19880;DHT22;10102;50.828;4.416;2023-04-05T07:30:19;8.10;99.90
19880;DHT22;10102;50.828;4.416;2023-04-05T07:32:45;8.60;99.90
19880;DHT22;10102;50.828;4.416;2023-04-05T07:35:11;8.50;99.90
19880;DHT22;10102;50.828;4.416;2023-04-05T07:37:36;8.60;99.90
19880;DHT22;10102;50.828;4.416;2023-04-05T07:40:03;8.60;99.90
19880;DHT22;10102;50.828;4.416;2023-04-05T07:42:30;8.40;99.90
19880;DHT22;10102;50.828;4.416;2023-04-05T07:44:57;8.80;99.90
19880;DHT22;10102;50.828;4.416;2023-04-05T07:47:23;9.20;99.90
19880;DHT22;10102;50.828;4.416;2023-04-05T07:49:48;9.00;99.90
19880;DHT22;10102;50.828;4.416;2023-04-05T07:52:14;9.10;99.90
19880;DHT22;10102;50.828;4.416;2023-04-05T07:54:40;8.90;99.90
19880;DHT22;10102;50.828;4.416;2023-04-05T07:57:08;9.40;99.90
19880;DHT22;10102;50.828;4.416;2023-04-05T07:59:34;9.50;99.90
19880;DHT22;10102;50.828;4.416;2023-04-05T08:02:01;9.60;99.90
19880;DHT22;10102;50.828;4.416;2023-04-05T08:04:27;9.60;99.90
19880;DHT22;10102;50.828;4.416;2023-04-05T08:06:53;10.00;99.90
19880;DHT22;10102;50.828;4.416;2023-04-05T08:09:18;9.80;99.90
19880;DHT22;10102;50.828;4.416;2023-04-05T08:14:10;10.10;99.90
19880;DHT22;10102;50.828;4.416;2023-04-05T08:16:36;10.00;99.90
19880;DHT22;10102;50.828;4.416;2023-04-05T08:19:02;10.00;99.90
19880;DHT22;10102;50.828;4.416;2023-04-05T08:21:27;10.20;99.90
19880;DHT22;10102;50.828;4.416;2023-04-05T08:23:53;10.00;99.90
19880;DHT22;10102;50.828;4.416;2023-04-05T08:26:19;10.30;99.90
19880;DHT22;10102;50.828;4.416;2023-04-05T08:28:45;10.30;99.90
19880;DHT22;10102;50.828;4.416;2023-04-05T08:31:12;10.20;99.90
19880;DHT22;10102;50.828;4.416;2023-04-05T08:33:38;10.50;99.90
19880;DHT22;10102;50.828;4.416;2023-04-05T08:36:07;10.60;99.90
19880;DHT22;10102;50.828;4.416;2023-04-05T08:38:34;10.70;99.90
19880;DHT22;10102;50.828;4.416;2023-04-05T08:41:27;10.80;99.90
19880;DHT22;10102;50.828;4.416;2023-04-05T08:43:56;10.80;99.90
19880;DHT22;10102;50.828;4.416;2023-04-05T08:46:24;11.00;99.90
19880;DHT22;10102;50.828;4.416;2023-04-05T08:48:49;11.10;99.90
19880;DHT22;10102;50.828;4.416;2023-04-05T08:51:22;10.90;99.90
19880;DHT22;10102;50.828;4.416;2023-04-05T08:53:48;10.80;99.90
19880;DHT22;10102;50.828;4.416;2023-04-05T08:56:24;11.20;99.90
19880;DHT22;10102;50.828;4.416;2023-04-05T08:59:06;11.40;99.90
19880;DHT22;10102;50.828;4.416;2023-04-05T09:01:36;11.40;99.90
19880;DHT22;10102;50.828;4.416;2023-04-05T09:04:08;11.40;99.90
19880;DHT22;10102;50.828;4.416;2023-04-05T09:06:35;11.50;99.90
19880;DHT22;10102;50.828;4.416;2023-04-05T09:09:05;11.50;99.90
19880;DHT22;10102;50.828;4.416;2023-04-05T09:11:32;11.60;99.90
19880;DHT22;10102;50.828;4.416;2023-04-05T09:14:02;11.60;99.90
19880;DHT22;10102;50.828;4.416;2023-04-05T09:16:29;11.60;99.90
19880;DHT22;10102;50.828;4.416;2023-04-05T09:18:55;11.80;99.90
19880;DHT22;10102;50.828;4.416;2023-04-05T09:21:21;12.00;99.90
19880;DHT22;10102;50.828;4.416;2023-04-05T09:23:52;11.90;99.90
19880;DHT22;10102;50.828;4.416;2023-04-05T09:26:23;12.20;99.90
19880;DHT22;10102;50.828;4.416;2023-04-05T09:28:49;12.10;99.90
19880;DHT22;10102;50.828;4.416;2023-04-05T09:31:33;12.20;99.90
19880;DHT22;10102;50.828;4.416;2023-04-05T09:34:03;12.30;99.90
19880;DHT22;10102;50.828;4.416;2023-04-05T09:36:30;12.00;99.90
19880;DHT22;10102;50.828;4.416;2023-04-05T09:39:08;12.30;99.90
19880;DHT22;10102;50.828;4.416;2023-04-05T09:41:35;12.50;99.90
19880;DHT22;10102;50.828;4.416;2023-04-05T09:44:02;12.70;99.90
19880;DHT22;10102;50.828;4.416;2023-04-05T09:48:59;13.00;99.90
19880;DHT22;10102;50.828;4.416;2023-04-05T09:51:36;13.00;99.90
19880;DHT22;10102;50.828;4.416;2023-04-05T09:54:09;12.80;99.90
19880;DHT22;10102;50.828;4.416;2023-04-05T09:56:37;12.90;99.90
19880;DHT22;10102;50.828;4.416;2023-04-05T09:59:08;13.10;99.90
19880;DHT22;10102;50.828;4.416;2023-04-05T10:01:36;13.10;99.90
19880;DHT22;10102;50.828;4.416;2023-04-05T10:04:02;13.20;99.90
19880;DHT22;10102;50.828;4.416;2023-04-05T10:06:37;13.40;99.90
19880;DHT22;10102;50.828;4.416;2023-04-05T10:09:04;13.30;99.90
19880;DHT22;10102;50.828;4.416;2023-04-05T10:11:31;13.60;99.90
19880;DHT22;10102;50.828;4.416;2023-04-05T10:14:00;13.60;99.90
19880;DHT22;10102;50.828;4.416;2023-04-05T10:16:27;13.50;99.90
19880;DHT22;10102;50.828;4.416;2023-04-05T10:18:53;13.80;99.90
19880;DHT22;10102;50.828;4.416;2023-04-05T10:21:21;13.90;99.90
19880;DHT22;10102;50.828;4.416;2023-04-05T10:24:00;14.10;99.90
19880;DHT22;10102;50.828;4.416;2023-04-05T10:26:39;14.40;99.90
19880;DHT22;10102;50.828;4.416;2023-04-05T10:29:11;14.50;99.90
19880;DHT22;10102;50.828;4.416;2023-04-05T10:32:10;14.50;99.90
19880;DHT22;10102;50.828;4.416;2023-04-05T10:34:46;14.60;99.90
19880;DHT22;10102;50.828;4.416;2023-04-05T10:40:31;14.80;99.90
19880;DHT22;10102;50.828;4.416;2023-04-05T10:42:57;14.80;99.90
19880;DHT22;10102;50.828;4.416;2023-04-05T10:45:24;15.00;99.90
19880;DHT22;10102;50.828;4.416;2023-04-05T10:47:58;15.20;99.90
19880;DHT22;10102;50.828;4.416;2023-04-05T10:50:26;15.50;99.90
19880;DHT22;10102;50.828;4.416;2023-04-05T10:52:52;15.60;99.90
19880;DHT22;10102;50.828;4.416;2023-04-05T10:55:18;16.00;99.90
19880;DHT22;10102;50.828;4.416;2023-04-05T10:57:46;16.60;99.90
19880;DHT22;10102;50.828;4.416;2023-04-05T11:00:13;17.70;99.90
19880;DHT22;10102;50.828;4.416;2023-04-05T11:02:40;17.90;93.90
19880;DHT22;10102;50.828;4.416;2023-04-05T11:05:07;19.70;93.10
19880;DHT22;10102;50.828;4.416;2023-04-05T11:07:52;21.80;84.00
19880;DHT22;10102;50.828;4.416;2023-04-05T11:10:21;24.30;72.60
19880;DHT22;10102;50.828;4.416;2023-04-05T11:18:09;29.20;56.70
19880;DHT22;10102;50.828;4.416;2023-04-05T11:20:40;30.00;55.60
19880;DHT22;10102;50.828;4.416;2023-04-05T11:23:07;31.20;51.30
19880;DHT22;10102;50.828;4.416;2023-04-05T11:25:37;31.90;50.00
19880;DHT22;10102;50.828;4.416;2023-04-05T11:28:05;33.00;49.50
19880;DHT22;10102;50.828;4.416;2023-04-05T11:30:46;34.90;55.50
19880;DHT22;10102;50.828;4.416;2023-04-05T11:36:07;35.70;43.80
19880;DHT22;10102;50.828;4.416;2023-04-05T11:38:34;36.20;43.00
19880;DHT22;10102;50.828;4.416;2023-04-05T11:41:14;36.00;42.30
19880;DHT22;10102;50.828;4.416;2023-04-05T11:43:42;36.00;42.10
19880;DHT22;10102;50.828;4.416;2023-04-05T11:46:08;36.90;41.90
19880;DHT22;10102;50.828;4.416;2023-04-05T11:48:34;37.00;40.40
19880;DHT22;10102;50.828;4.416;2023-04-05T11:51:06;37.20;40.00
19880;DHT22;10102;50.828;4.416;2023-04-05T11:53:33;37.00;39.30
19880;DHT22;10102;50.828;4.416;2023-04-05T11:56:09;37.10;38.90
19880;DHT22;10102;50.828;4.416;2023-04-05T11:58:37;37.90;38.80
19880;DHT22;10102;50.828;4.416;2023-04-05T12:01:04;37.90;38.50
19880;DHT22;10102;50.828;4.416;2023-04-05T12:03:34;38.20;38.10
19880;DHT22;10102;50.828;4.416;2023-04-05T12:06:02;38.90;37.60
19880;DHT22;10102;50.828;4.416;2023-04-05T12:11:09;39.30;36.50
19880;DHT22;10102;50.828;4.416;2023-04-05T12:13:38;39.80;43.70
19880;DHT22;10102;50.828;4.416;2023-04-05T12:16:05;39.90;35.60
19880;DHT22;10102;50.828;4.416;2023-04-05T12:18:32;40.70;35.00
19880;DHT22;10102;50.828;4.416;2023-04-05T12:21:00;40.20;34.70
19880;DHT22;10102;50.828;4.416;2023-04-05T12:23:26;39.70;35.50
19880;DHT22;10102;50.828;4.416;2023-04-05T12:25:54;39.50;35.00
19880;DHT22;10102;50.828;4.416;2023-04-05T12:28:21;38.40;34.80
19880;DHT22;10102;50.828;4.416;2023-04-05T12:33:13;38.60;35.10
19880;DHT22;10102;50.828;4.416;2023-04-05T12:35:41;38.60;35.30
19880;DHT22;10102;50.828;4.416;2023-04-05T12:38:07;38.80;34.80
19880;DHT22;10102;50.828;4.416;2023-04-05T12:40:35;39.00;34.70
19880;DHT22;10102;50.828;4.416;2023-04-05T12:43:07;38.30;34.50
19880;DHT22;10102;50.828;4.416;2023-04-05T12:45:34;38.80;34.40
19880;DHT22;10102;50.828;4.416;2023-04-05T12:48:12;38.20;35.00
19880;DHT22;10102;50.828;4.416;2023-04-05T12:50:43;36.40;34.80
19880;DHT22;10102;50.828;4.416;2023-04-05T12:53:15;37.60;35.40
19880;DHT22;10102;50.828;4.416;2023-04-05T12:55:53;38.90;34.30
19880;DHT22;10102;50.828;4.416;2023-04-05T12:58:20;38.90;43.60
19880;DHT22;10102;50.828;4.416;2023-04-05T13:00:47;39.00;34.60
19880;DHT22;10102;50.828;4.416;2023-04-05T13:03:20;38.10;34.50
19880;DHT22;10102;50.828;4.416;2023-04-05T13:05:46;38.10;35.50
19880;DHT22;10102;50.828;4.416;2023-04-05T13:08:14;38.60;34.70
19880;DHT22;10102;50.828;4.416;2023-04-05T13:10:40;37.50;34.60
19880;DHT22;10102;50.828;4.416;2023-04-05T13:13:06;37.30;35.10
19880;DHT22;10102;50.828;4.416;2023-04-05T13:15:31;37.70;34.70
19880;DHT22;10102;50.828;4.416;2023-04-05T13:17:57;36.80;34.50
19880;DHT22;10102;50.828;4.416;2023-04-05T13:20:23;36.60;35.30
19880;DHT22;10102;50.828;4.416;2023-04-05T13:22:49;37.20;35.50
19880;DHT22;10102;50.828;4.416;2023-04-05T13:25:15;37.20;34.80
19880;DHT22;10102;50.828;4.416;2023-04-05T13:27:41;37.60;34.60
19880;DHT22;10102;50.828;4.416;2023-04-05T13:30:08;38.10;35.40
19880;DHT22;10102;50.828;4.416;2023-04-05T13:32:34;37.00;35.80
19880;DHT22;10102;50.828;4.416;2023-04-05T13:35:00;36.40;35.70
19880;DHT22;10102;50.828;4.416;2023-04-05T13:37:25;35.50;36.50
19880;DHT22;10102;50.828;4.416;2023-04-05T13:39:51;34.40;37.00
19880;DHT22;10102;50.828;4.416;2023-04-05T13:42:16;32.60;38.60
19880;DHT22;10102;50.828;4.416;2023-04-05T13:44:42;30.80;39.90
19880;DHT22;10102;50.828;4.416;2023-04-05T13:47:08;29.40;41.50
19880;DHT22;10102;50.828;4.416;2023-04-05T13:49:34;26.70;57.40
19880;DHT22;10102;50.828;4.416;2023-04-05T13:52:00;25.80;57.70
19880;DHT22;10102;50.828;4.416;2023-04-05T13:54:25;25.20;58.70
19880;DHT22;10102;50.828;4.416;2023-04-05T13:56:51;24.40;62.00
19880;DHT22;10102;50.828;4.416;2023-04-05T13:59:17;24.30;59.40
19880;DHT22;10102;50.828;4.416;2023-04-05T14:01:44;23.30;59.70
19880;DHT22;10102;50.828;4.416;2023-04-05T14:04:10;23.10;62.20
19880;DHT22;10102;50.828;4.416;2023-04-05T14:06:36;22.50;62.30
19880;DHT22;10102;50.828;4.416;2023-04-05T14:09:02;22.50;64.10
19880;DHT22;10102;50.828;4.416;2023-04-05T14:11:28;22.20;64.30
19880;DHT22;10102;50.828;4.416;2023-04-05T14:13:54;21.60;64.10
19880;DHT22;10102;50.828;4.416;2023-04-05T14:18:45;22.50;61.50
19880;DHT22;10102;50.828;4.416;2023-04-05T14:21:11;22.70;61.80
19880;DHT22;10102;50.828;4.416;2023-04-05T14:26:03;23.30;61.00
19880;DHT22;10102;50.828;4.416;2023-04-05T14:30:55;24.60;60.10
19880;DHT22;10102;50.828;4.416;2023-04-05T14:33:23;25.60;57.30
19880;DHT22;10102;50.828;4.416;2023-04-05T14:35:49;25.70;45.40
19880;DHT22;10102;50.828;4.416;2023-04-05T14:38:14;27.20;45.20
19880;DHT22;10102;50.828;4.416;2023-04-05T14:40:41;28.10;43.80
19880;DHT22;10102;50.828;4.416;2023-04-05T14:43:07;29.50;42.00
19880;DHT22;10102;50.828;4.416;2023-04-05T14:45:32;30.20;41.90
19880;DHT22;10102;50.828;4.416;2023-04-05T14:47:59;31.00;52.60
19880;DHT22;10102;50.828;4.416;2023-04-05T14:50:25;31.00;39.90
19880;DHT22;10102;50.828;4.416;2023-04-05T14:52:54;30.80;40.20
19880;DHT22;10102;50.828;4.416;2023-04-05T14:55:19;30.60;41.40
19880;DHT22;10102;50.828;4.416;2023-04-05T14:57:45;29.90;41.30
19880;DHT22;10102;50.828;4.416;2023-04-05T15:00:11;30.40;41.50
19880;DHT22;10102;50.828;4.416;2023-04-05T15:02:37;29.80;53.20
19880;DHT22;10102;50.828;4.416;2023-04-05T15:05:04;29.70;41.30
19880;DHT22;10102;50.828;4.416;2023-04-05T15:07:30;29.30;54.00
19880;DHT22;10102;50.828;4.416;2023-04-05T15:09:56;29.20;41.60
19880;DHT22;10102;50.828;4.416;2023-04-05T15:12:23;29.20;41.90
19880;DHT22;10102;50.828;4.416;2023-04-05T15:14:48;29.60;42.50
19880;DHT22;10102;50.828;4.416;2023-04-05T15:17:15;29.60;42.70
19880;DHT22;10102;50.828;4.416;2023-04-05T15:19:41;29.10;42.50
19880;DHT22;10102;50.828;4.416;2023-04-05T15:22:07;29.40;42.60
19880;DHT22;10102;50.828;4.416;2023-04-05T15:24:35;30.10;41.50
19880;DHT22;10102;50.828;4.416;2023-04-05T15:27:01;30.40;41.60
19880;DHT22;10102;50.828;4.416;2023-04-05T15:29:28;30.20;41.40
19880;DHT22;10102;50.828;4.416;2023-04-05T15:31:54;30.70;41.70
19880;DHT22;10102;50.828;4.416;2023-04-05T15:34:20;31.20;41.30
19880;DHT22;10102;50.828;4.416;2023-04-05T15:36:46;31.90;40.00
19880;DHT22;10102;50.828;4.416;2023-04-05T15:39:11;32.10;40.40
19880;DHT22;10102;50.828;4.416;2023-04-05T15:41:38;32.30;40.30
19880;DHT22;10102;50.828;4.416;2023-04-05T15:44:05;32.60;40.10
19880;DHT22;10102;50.828;4.416;2023-04-05T15:46:31;32.80;40.10
19880;DHT22;10102;50.828;4.416;2023-04-05T15:48:56;32.80;39.60
19880;DHT22;10102;50.828;4.416;2023-04-05T15:51:22;32.80;39.60
19880;DHT22;10102;50.828;4.416;2023-04-05T15:53:48;33.20;39.40
19880;DHT22;10102;50.828;4.416;2023-04-05T15:56:14;33.30;39.20
19880;DHT22;10102;50.828;4.416;2023-04-05T15:58:40;33.40;39.40
19880;DHT22;10102;50.828;4.416;2023-04-05T16:01:05;33.80;38.90
19880;DHT22;10102;50.828;4.416;2023-04-05T16:03:31;34.40;38.80
19880;DHT22;10102;50.828;4.416;2023-04-05T16:05:57;34.00;38.60
19880;DHT22;10102;50.828;4.416;2023-04-05T16:08:23;32.80;39.90
19880;DHT22;10102;50.828;4.416;2023-04-05T16:10:52;31.60;40.20
19880;DHT22;10102;50.828;4.416;2023-04-05T16:13:18;31.10;40.80
19880;DHT22;10102;50.828;4.416;2023-04-05T16:15:43;30.50;41.10
19880;DHT22;10102;50.828;4.416;2023-04-05T16:18:09;31.10;40.90
19880;DHT22;10102;50.828;4.416;2023-04-05T16:20:39;31.50;40.70
19880;DHT22;10102;50.828;4.416;2023-04-05T16:23:05;31.40;40.50
19880;DHT22;10102;50.828;4.416;2023-04-05T16:25:31;31.50;40.90
19880;DHT22;10102;50.828;4.416;2023-04-05T16:27:57;31.50;40.90
19880;DHT22;10102;50.828;4.416;2023-04-05T16:30:22;31.90;40.50
19880;DHT22;10102;50.828;4.416;2023-04-05T16:32:52;32.60;39.70
19880;DHT22;10102;50.828;4.416;2023-04-05T16:35:18;32.60;40.00
19880;DHT22;10102;50.828;4.416;2023-04-05T16:37:43;32.70;40.50
19880;DHT22;10102;50.828;4.416;2023-04-05T16:40:11;32.40;39.90
19880;DHT22;10102;50.828;4.416;2023-04-05T16:42:37;31.40;40.10
19880;DHT22;10102;50.828;4.416;2023-04-05T16:45:03;30.80;41.60
19880;DHT22;10102;50.828;4.416;2023-04-05T16:47:29;30.40;42.40
19880;DHT22;10102;50.828;4.416;2023-04-05T16:49:55;30.40;41.90
19880;DHT22;10102;50.828;4.416;2023-04-05T16:52:21;30.80;41.50
19880;DHT22;10102;50.828;4.416;2023-04-05T16:54:48;31.10;40.90
19880;DHT22;10102;50.828;4.416;2023-04-05T16:57:14;31.20;42.00
19880;DHT22;10102;50.828;4.416;2023-04-05T16:59:40;30.90;41.70
19880;DHT22;10102;50.828;4.416;2023-04-05T17:02:06;30.50;41.10
19880;DHT22;10102;50.828;4.416;2023-04-05T17:04:32;29.90;41.60
19880;DHT22;10102;50.828;4.416;2023-04-05T17:06:58;29.50;42.10
19880;DHT22;10102;50.828;4.416;2023-04-05T17:09:25;29.00;44.00
19880;DHT22;10102;50.828;4.416;2023-04-05T17:11:55;28.40;55.50
19880;DHT22;10102;50.828;4.416;2023-04-05T17:16:47;26.90;57.40
19880;DHT22;10102;50.828;4.416;2023-04-05T17:19:16;25.40;60.00
19880;DHT22;10102;50.828;4.416;2023-04-05T17:21:41;24.50;61.30
19880;DHT22;10102;50.828;4.416;2023-04-05T17:24:10;23.90;62.00
19880;DHT22;10102;50.828;4.416;2023-04-05T17:26:35;23.40;63.50